sensor_id;sensor_type;location;lat;lon;timestamp;pressure;altitude;pressure_sealevel;temperature;humidity
5062;BME280;2351;50.812;12.872;2023-05-02T00:01:45;97766.88;;;10.48;94.15
5062;BME280;2351;50.812;12.872;2023-05-02T00:04:17;97774.97;;;10.46;94.30
5062;BME280;2351;50.812;12.872;2023-05-02T00:06:50;97766.31;;;10.44;94.52
5062;BME280;2351;50.812;12.872;2023-05-02T00:09:23;97772.84;;;10.40;95.17
5062;BME280;2351;50.812;12.872;2023-05-02T00:11:55;97763.09;;;10.40;95.01
5062;BME280;2351;50.812;12.872;2023-05-02T00:14:26;97765.97;;;10.37;95.14
5062;BME280;2351;50.812;12.872;2023-05-02T00:16:58;97765.41;;;10.34;96.11
5062;BME280;2351;50.812;12.872;2023-05-02T00:19:30;97774.47;;;10.31;96.14
5062;BME280;2351;50.812;12.872;2023-05-02T00:22:02;97774.72;;;10.28;96.97
5062;BME280;2351;50.812;12.872;2023-05-02T00:24:35;97771.22;;;10.28;96.70
5062;BME280;2351;50.812;12.872;2023-05-02T00:27:06;97770.69;;;10.24;97.21
5062;BME280;2351;50.812;12.872;2023-05-02T00:29:38;97768.19;;;10.22;97.39
5062;BME280;2351;50.812;12.872;2023-05-02T00:32:10;97766.50;;;10.21;97.64
5062;BME280;2351;50.812;12.872;2023-05-02T00:34:42;97766.63;;;10.20;97.55
5062;BME280;2351;50.812;12.872;2023-05-02T00:37:13;97776.38;;;10.19;97.84
5062;BME280;2351;50.812;12.872;2023-05-02T00:39:47;97771.34;;;10.16;98.33
5062;BME280;2351;50.812;12.872;2023-05-02T00:42:19;97771.34;;;10.16;98.59
5062;BME280;2351;50.812;12.872;2023-05-02T00:44:50;97762.84;;;10.13;99.24
5062;BME280;2351;50.812;12.872;2023-05-02T00:47:22;97762.72;;;10.14;98.78
5062;BME280;2351;50.812;12.872;2023-05-02T00:49:54;97759.25;;;10.14;98.86
5062;BME280;2351;50.812;12.872;2023-05-02T00:52:27;97766.47;;;10.12;99.30
5062;BME280;2351;50.812;12.872;2023-05-02T00:55:00;97764.78;;;10.10;99.44
5062;BME280;2351;50.812;12.872;2023-05-02T00:57:33;97757.84;;;10.09;99.33
5062;BME280;2351;50.812;12.872;2023-05-02T01:00:05;97765.06;;;10.07;99.43
5062;BME280;2351;50.812;12.872;2023-05-02T01:02:47;97757.25;;;10.06;99.34
5062;BME280;2351;50.812;12.872;2023-05-02T01:05:24;97762.81;;;10.03;99.19
5062;BME280;2351;50.812;12.872;2023-05-02T01:08:07;97770.06;;;10.01;99.46
5062;BME280;2351;50.812;12.872;2023-05-02T01:10:47;97764.75;;;10.01;99.29
5062;BME280;2351;50.812;12.872;2023-05-02T01:13:21;97769.03;;;9.92;98.94
5062;BME280;2351;50.812;12.872;2023-05-02T01:15:55;97758.59;;;9.90;99.30
5062;BME280;2351;50.812;12.872;2023-05-02T01:18:31;97770.28;;;9.88;98.91
5062;BME280;2351;50.812;12.872;2023-05-02T01:21:07;97768.84;;;9.84;98.50
5062;BME280;2351;50.812;12.872;2023-05-02T01:23:52;97764.69;;;9.81;98.44
5062;BME280;2351;50.812;12.872;2023-05-02T01:26:34;97773.13;;;9.75;98.13
5062;BME280;2351;50.812;12.872;2023-05-02T01:29:13;97772.22;;;9.64;98.32
5062;BME280;2351;50.812;12.872;2023-05-02T01:31:48;97771.50;;;9.62;98.39
5062;BME280;2351;50.812;12.872;2023-05-02T01:34:21;97771.34;;;9.54;98.10
5062;BME280;2351;50.812;12.872;2023-05-02T01:36:56;97784.09;;;9.49;98.12
5062;BME280;2351;50.812;12.872;2023-05-02T01:39:30;97780.28;;;9.42;98.43
5062;BME280;2351;50.812;12.872;2023-05-02T01:42:04;97787.78;;;9.37;98.79
5062;BME280;2351;50.812;12.872;2023-05-02T01:44:37;97788.16;;;9.32;98.59
5062;BME280;2351;50.812;12.872;2023-05-02T01:47:11;97796.31;;;9.29;98.98
5062;BME280;2351;50.812;12.872;2023-05-02T01:49:43;97789.97;;;9.31;98.67
5062;BME280;2351;50.812;12.872;2023-05-02T01:52:19;97782.44;;;9.27;98.49
5062;BME280;2351;50.812;12.872;2023-05-02T01:54:52;97793.59;;;9.19;98.62
5062;BME280;2351;50.812;12.872;2023-05-02T01:57:26;97787.59;;;9.17;98.83
5062;BME280;2351;50.812;12.872;2023-05-02T01:59:59;97794.84;;;9.15;98.75
5062;BME280;2351;50.812;12.872;2023-05-02T02:02:33;97796.88;;;9.11;98.98
5062;BME280;2351;50.812;12.872;2023-05-02T02:08:32;97811.56;;;9.04;99.14
5062;BME280;2351;50.812;12.872;2023-05-02T02:11:11;97811.56;;;9.04;99.12
5062;BME280;2351;50.812;12.872;2023-05-02T02:13:48;97813.34;;;9.03;99.51
5062;BME280;2351;50.812;12.872;2023-05-02T02:16:24;97815.28;;;9.01;99.47
5062;BME280;2351;50.812;12.872;2023-05-02T02:19:03;97817.09;;;9.01;99.43
5062;BME280;2351;50.812;12.872;2023-05-02T02:21:36;97811.09;;;8.99;99.42
5062;BME280;2351;50.812;12.872;2023-05-02T02:24:10;97819.28;;;8.96;99.56
5062;BME280;2351;50.812;12.872;2023-05-02T02:26:43;97825.50;;;8.95;99.49
5062;BME280;2351;50.812;12.872;2023-05-02T02:29:15;97824.94;;;8.91;99.35
5062;BME280;2351;50.812;12.872;2023-05-02T02:31:48;97833.91;;;8.88;99.58
5062;BME280;2351;50.812;12.872;2023-05-02T02:34:20;97834.88;;;8.87;99.88
5062;BME280;2351;50.812;12.872;2023-05-02T02:36:55;97840.28;;;8.86;100.00
5062;BME280;2351;50.812;12.872;2023-05-02T02:39:38;97844.63;;;8.87;100.00
5062;BME280;2351;50.812;12.872;2023-05-02T02:42:16;97838.47;;;8.86;100.00
5062;BME280;2351;50.812;12.872;2023-05-02T02:44:54;97847.25;;;8.87;100.00
5062;BME280;2351;50.812;12.872;2023-05-02T02:47:37;97857.81;;;8.87;100.00
5062;BME280;2351;50.812;12.872;2023-05-02T02:50:16;97860.69;;;8.84;100.00
5062;BME280;2351;50.812;12.872;2023-05-02T02:52:54;97857.34;;;8.82;100.00
5062;BME280;2351;50.812;12.872;2023-05-02T02:55:35;97876.78;;;8.81;100.00
5062;BME280;2351;50.812;12.872;2023-05-02T02:58:19;97872.69;;;8.77;100.00
5062;BME280;2351;50.812;12.872;2023-05-02T03:00:52;97863.94;;;8.76;100.00
5062;BME280;2351;50.812;12.872;2023-05-02T03:03:26;97870.19;;;8.75;100.00
5062;BME280;2351;50.812;12.872;2023-05-02T03:05:59;97876.44;;;8.74;100.00
5062;BME280;2351;50.812;12.872;2023-05-02T03:08:38;97875.84;;;8.70;100.00
5062;BME280;2351;50.812;12.872;2023-05-02T03:11:10;97879.44;;;8.69;100.00
5062;BME280;2351;50.812;12.872;2023-05-02T03:13:41;97884.00;;;8.67;100.00
5062;BME280;2351;50.812;12.872;2023-05-02T03:16:32;97892.88;;;8.66;100.00
5062;BME280;2351;50.812;12.872;2023-05-02T03:19:07;97881.59;;;8.64;100.00
5062;BME280;2351;50.812;12.872;2023-05-02T03:21:38;97882.94;;;8.58;100.00
5062;BME280;2351;50.812;12.872;2023-05-02T03:24:11;97899.81;;;8.56;100.00
5062;BME280;2351;50.812;12.872;2023-05-02T03:26:42;97890.34;;;8.53;100.00
5062;BME280;2351;50.812;12.872;2023-05-02T03:29:14;97904.75;;;8.49;100.00
5062;BME280;2351;50.812;12.872;2023-05-02T03:31:46;97900.53;;;8.47;100.00
5062;BME280;2351;50.812;12.872;2023-05-02T03:34:19;97898.84;;;8.46;100.00
5062;BME280;2351;50.812;12.872;2023-05-02T03:36:51;97899.81;;;8.44;100.00
5062;BME280;2351;50.812;12.872;2023-05-02T03:39:23;97900.13;;;8.40;100.00
5062;BME280;2351;50.812;12.872;2023-05-02T03:41:55;97895.00;;;8.38;100.00
5062;BME280;2351;50.812;12.872;2023-05-02T03:44:26;97906.63;;;8.36;100.00
5062;BME280;2351;50.812;12.872;2023-05-02T03:46:58;97905.69;;;8.37;100.00
5062;BME280;2351;50.812;12.872;2023-05-02T03:49:33;97913.31;;;8.40;100.00
5062;BME280;2351;50.812;12.872;2023-05-02T03:52:05;97914.19;;;8.40;100.00
5062;BME280;2351;50.812;12.872;2023-05-02T03:54:37;97920.41;;;8.39;100.00
5062;BME280;2351;50.812;12.872;2023-05-02T03:57:08;97920.28;;;8.41;100.00
5062;BME280;2351;50.812;12.872;2023-05-02T03:59:41;97930.84;;;8.41;100.00
5062;BME280;2351;50.812;12.872;2023-05-02T04:02:15;97928.19;;;8.41;100.00
5062;BME280;2351;50.812;12.872;2023-05-02T04:04:48;97933.59;;;8.39;100.00
5062;BME280;2351;50.812;12.872;2023-05-02T04:07:19;97942.00;;;8.44;100.00
5062;BME280;2351;50.812;12.872;2023-05-02T04:09:51;97947.78;;;8.50;100.00
5062;BME280;2351;50.812;12.872;2023-05-02T04:12:23;97942.38;;;8.51;100.00
5062;BME280;2351;50.812;12.872;2023-05-02T04:14:55;97941.19;;;8.55;100.00
5062;BME280;2351;50.812;12.872;2023-05-02T04:17:26;97949.84;;;8.57;100.00
5062;BME280;2351;50.812;12.872;2023-05-02T04:19:59;97957.75;;;8.57;100.00
5062;BME280;2351;50.812;12.872;2023-05-02T04:22:31;97955.56;;;8.63;100.00
5062;BME280;2351;50.812;12.872;2023-05-02T04:25:04;97956.28;;;8.65;100.00
5062;BME280;2351;50.812;12.872;2023-05-02T04:27:35;97963.00;;;8.69;100.00
5062;BME280;2351;50.812;12.872;2023-05-02T04:30:08;97972.38;;;8.73;100.00
5062;BME280;2351;50.812;12.872;2023-05-02T04:32:40;97975.59;;;8.77;100.00
5062;BME280;2351;50.812;12.872;2023-05-02T04:35:13;97983.41;;;8.78;100.00
5062;BME280;2351;50.812;12.872;2023-05-02T04:37:46;97979.81;;;8.79;100.00
5062;BME280;2351;50.812;12.872;2023-05-02T04:40:18;97978.72;;;8.82;100.00
5062;BME280;2351;50.812;12.872;2023-05-02T04:42:50;97981.84;;;8.87;100.00
5062;BME280;2351;50.812;12.872;2023-05-02T04:45:22;97987.00;;;8.88;100.00
5062;BME280;2351;50.812;12.872;2023-05-02T04:47:53;97991.09;;;8.93;100.00
5062;BME280;2351;50.812;12.872;2023-05-02T04:50:26;97993.34;;;8.97;100.00
5062;BME280;2351;50.812;12.872;2023-05-02T04:52:58;97995.66;;;9.02;100.00
5062;BME280;2351;50.812;12.872;2023-05-02T04:55:30;97997.91;;;9.07;100.00
5062;BME280;2351;50.812;12.872;2023-05-02T04:58:02;98004.66;;;9.11;100.00
5062;BME280;2351;50.812;12.872;2023-05-02T05:00:34;98017.47;;;9.15;100.00
5062;BME280;2351;50.812;12.872;2023-05-02T05:03:05;98006.78;;;9.17;100.00
5062;BME280;2351;50.812;12.872;2023-05-02T05:05:38;98013.88;;;9.16;100.00
5062;BME280;2351;50.812;12.872;2023-05-02T05:08:10;98028.84;;;9.16;100.00
5062;BME280;2351;50.812;12.872;2023-05-02T05:10:42;98030.81;;;9.14;100.00
5062;BME280;2351;50.812;12.872;2023-05-02T05:13:14;98028.50;;;9.09;100.00
5062;BME280;2351;50.812;12.872;2023-05-02T05:15:46;98032.72;;;9.12;100.00
5062;BME280;2351;50.812;12.872;2023-05-02T05:18:18;98035.81;;;9.17;100.00
5062;BME280;2351;50.812;12.872;2023-05-02T05:20:51;98046.16;;;9.20;100.00
5062;BME280;2351;50.812;12.872;2023-05-02T05:23:23;98038.72;;;9.25;100.00
5062;BME280;2351;50.812;12.872;2023-05-02T05:25:55;98051.91;;;9.25;100.00
5062;BME280;2351;50.812;12.872;2023-05-02T05:28:27;98045.31;;;9.31;100.00
5062;BME280;2351;50.812;12.872;2023-05-02T05:31:04;98045.53;;;9.39;100.00
5062;BME280;2351;50.812;12.872;2023-05-02T05:33:35;98055.00;;;9.42;100.00
5062;BME280;2351;50.812;12.872;2023-05-02T05:36:10;98052.03;;;9.46;100.00
5062;BME280;2351;50.812;12.872;2023-05-02T05:38:42;98046.22;;;9.53;100.00
5062;BME280;2351;50.812;12.872;2023-05-02T05:41:14;98052.94;;;9.57;100.00
5062;BME280;2351;50.812;12.872;2023-05-02T05:43:46;98056.66;;;9.65;100.00
5062;BME280;2351;50.812;12.872;2023-05-02T05:46:17;98056.88;;;9.74;100.00
5062;BME280;2351;50.812;12.872;2023-05-02T05:48:49;98065.00;;;9.82;100.00
5062;BME280;2351;50.812;12.872;2023-05-02T05:51:22;98066.34;;;9.88;100.00
5062;BME280;2351;50.812;12.872;2023-05-02T05:53:54;98066.09;;;9.91;100.00
5062;BME280;2351;50.812;12.872;2023-05-02T05:56:25;98079.50;;;9.99;100.00
5062;BME280;2351;50.812;12.872;2023-05-02T05:58:57;98080.13;;;10.03;99.40
5062;BME280;2351;50.812;12.872;2023-05-02T06:01:29;98085.28;;;10.04;99.28
5062;BME280;2351;50.812;12.872;2023-05-02T06:04:01;98079.34;;;10.12;99.37
5062;BME280;2351;50.812;12.872;2023-05-02T06:06:35;98083.66;;;10.24;98.96
5062;BME280;2351;50.812;12.872;2023-05-02T06:09:07;98094.56;;;10.31;98.64
5062;BME280;2351;50.812;12.872;2023-05-02T06:11:39;98086.47;;;10.44;98.23
5062;BME280;2351;50.812;12.872;2023-05-02T06:14:10;98100.34;;;10.58;98.42
5062;BME280;2351;50.812;12.872;2023-05-02T06:16:42;98100.81;;;10.63;96.42
5062;BME280;2351;50.812;12.872;2023-05-02T06:19:14;98100.31;;;10.69;96.63
5062;BME280;2351;50.812;12.872;2023-05-02T06:21:47;98113.00;;;10.75;96.26
5062;BME280;2351;50.812;12.872;2023-05-02T06:24:19;98112.03;;;10.76;95.69
5062;BME280;2351;50.812;12.872;2023-05-02T06:26:51;98114.81;;;10.75;94.76
5062;BME280;2351;50.812;12.872;2023-05-02T06:29:22;98116.59;;;10.74;94.34
5062;BME280;2351;50.812;12.872;2023-05-02T06:31:54;98128.00;;;10.65;92.99
5062;BME280;2351;50.812;12.872;2023-05-02T06:34:26;98136.03;;;10.63;92.91
5062;BME280;2351;50.812;12.872;2023-05-02T06:36:59;98138.69;;;10.63;92.87
5062;BME280;2351;50.812;12.872;2023-05-02T06:39:32;98137.72;;;10.64;92.54
5062;BME280;2351;50.812;12.872;2023-05-02T06:42:03;98142.75;;;10.67;92.63
5062;BME280;2351;50.812;12.872;2023-05-02T06:44:35;98141.69;;;10.70;92.12
5062;BME280;2351;50.812;12.872;2023-05-02T06:47:07;98155.59;;;10.72;92.19
5062;BME280;2351;50.812;12.872;2023-05-02T06:49:38;98154.63;;;10.73;91.87
5062;BME280;2351;50.812;12.872;2023-05-02T06:52:12;98159.81;;;10.75;91.62
5062;BME280;2351;50.812;12.872;2023-05-02T06:54:43;98163.53;;;10.72;91.54
5062;BME280;2351;50.812;12.872;2023-05-02T06:57:15;98175.25;;;10.69;91.33
5062;BME280;2351;50.812;12.872;2023-05-02T06:59:47;98179.09;;;10.65;90.91
5062;BME280;2351;50.812;12.872;2023-05-02T07:02:18;98184.66;;;10.62;91.03
5062;BME280;2351;50.812;12.872;2023-05-02T07:04:51;98188.66;;;10.57;90.72
5062;BME280;2351;50.812;12.872;2023-05-02T07:07:24;98190.72;;;10.53;90.90
5062;BME280;2351;50.812;12.872;2023-05-02T07:09:56;98198.56;;;10.43;90.22
5062;BME280;2351;50.812;12.872;2023-05-02T07:12:28;98193.75;;;10.37;90.42
5062;BME280;2351;50.812;12.872;2023-05-02T07:14:59;98200.88;;;10.25;90.30
5062;BME280;2351;50.812;12.872;2023-05-02T07:17:31;98199.56;;;10.19;90.79
5062;BME280;2351;50.812;12.872;2023-05-02T07:20:03;98210.25;;;10.18;90.66
5062;BME280;2351;50.812;12.872;2023-05-02T07:22:37;98206.06;;;10.15;91.04
5062;BME280;2351;50.812;12.872;2023-05-02T07:25:09;98214.00;;;10.15;91.14
5062;BME280;2351;50.812;12.872;2023-05-02T07:27:41;98214.00;;;10.15;91.41
5062;BME280;2351;50.812;12.872;2023-05-02T07:30:12;98225.28;;;10.17;91.13
5062;BME280;2351;50.812;12.872;2023-05-02T07:32:44;98219.03;;;10.18;91.38
5062;BME280;2351;50.812;12.872;2023-05-02T07:35:16;98221.69;;;10.18;91.54
5062;BME280;2351;50.812;12.872;2023-05-02T07:37:49;98227.78;;;10.19;91.83
5062;BME280;2351;50.812;12.872;2023-05-02T07:40:21;98231.41;;;10.18;91.71
5062;BME280;2351;50.812;12.872;2023-05-02T07:42:57;98233.94;;;10.19;92.17
5062;BME280;2351;50.812;12.872;2023-05-02T07:45:31;98233.69;;;10.22;92.20
5062;BME280;2351;50.812;12.872;2023-05-02T07:48:03;98240.31;;;10.28;92.20
5062;BME280;2351;50.812;12.872;2023-05-02T07:50:35;98245.22;;;10.33;92.73
5062;BME280;2351;50.812;12.872;2023-05-02T07:53:08;98247.47;;;10.37;92.99
5062;BME280;2351;50.812;12.872;2023-05-02T07:55:40;98244.75;;;10.39;92.98
5062;BME280;2351;50.812;12.872;2023-05-02T07:58:12;98252.78;;;10.37;93.82
5062;BME280;2351;50.812;12.872;2023-05-02T08:00:43;98264.81;;;10.42;94.72
5062;BME280;2351;50.812;12.872;2023-05-02T08:03:16;98262.78;;;10.45;94.60
5062;BME280;2351;50.812;12.872;2023-05-02T08:05:47;98267.56;;;10.51;94.59
5062;BME280;2351;50.812;12.872;2023-05-02T08:08:20;98262.50;;;10.60;95.38
5062;BME280;2351;50.812;12.872;2023-05-02T08:10:52;98267.06;;;10.69;95.79
5062;BME280;2351;50.812;12.872;2023-05-02T08:13:24;98257.38;;;10.79;96.47
5062;BME280;2351;50.812;12.872;2023-05-02T08:15:56;98269.88;;;10.89;96.03
5062;BME280;2351;50.812;12.872;2023-05-02T08:18:28;98274.88;;;11.03;96.82
5062;BME280;2351;50.812;12.872;2023-05-02T08:20:59;98278.94;;;11.28;98.18
5062;BME280;2351;50.812;12.872;2023-05-02T08:23:32;98288.84;;;11.05;94.01
5062;BME280;2351;50.812;12.872;2023-05-02T08:26:05;98289.56;;;10.96;95.46
5062;BME280;2351;50.812;12.872;2023-05-02T08:28:36;98303.25;;;10.80;95.09
5062;BME280;2351;50.812;12.872;2023-05-02T08:31:08;98308.22;;;10.62;96.24
5062;BME280;2351;50.812;12.872;2023-05-02T08:33:40;98301.38;;;10.59;96.76
5062;BME280;2351;50.812;12.872;2023-05-02T08:36:13;98307.63;;;10.58;97.73
5062;BME280;2351;50.812;12.872;2023-05-02T08:38:46;98307.50;;;10.48;97.27
5062;BME280;2351;50.812;12.872;2023-05-02T08:41:18;98309.91;;;10.51;97.21
5062;BME280;2351;50.812;12.872;2023-05-02T08:43:50;98321.56;;;10.37;97.05
5062;BME280;2351;50.812;12.872;2023-05-02T08:46:24;98315.44;;;10.37;97.41
5062;BME280;2351;50.812;12.872;2023-05-02T08:48:57;98324.47;;;10.46;97.79
5062;BME280;2351;50.812;12.872;2023-05-02T08:51:30;98320.16;;;10.45;96.62
5062;BME280;2351;50.812;12.872;2023-05-02T08:54:05;98317.75;;;10.30;94.37
5062;BME280;2351;50.812;12.872;2023-05-02T08:56:39;98319.06;;;10.24;95.75
5062;BME280;2351;50.812;12.872;2023-05-02T08:59:11;98327.72;;;10.38;95.74
5062;BME280;2351;50.812;12.872;2023-05-02T09:01:43;98324.72;;;10.54;95.46
5062;BME280;2351;50.812;12.872;2023-05-02T09:04:19;98331.66;;;10.66;95.46
5062;BME280;2351;50.812;12.872;2023-05-02T09:06:53;98330.06;;;10.75;94.92
5062;BME280;2351;50.812;12.872;2023-05-02T09:09:26;98338.16;;;10.74;94.05
5062;BME280;2351;50.812;12.872;2023-05-02T09:12:01;98341.88;;;10.82;94.51
5062;BME280;2351;50.812;12.872;2023-05-02T09:14:32;98340.75;;;10.85;93.68
5062;BME280;2351;50.812;12.872;2023-05-02T09:17:04;98343.06;;;10.78;92.31
5062;BME280;2351;50.812;12.872;2023-05-02T09:19:36;98337.06;;;10.76;92.43
5062;BME280;2351;50.812;12.872;2023-05-02T09:22:08;98346.19;;;10.83;92.63
5062;BME280;2351;50.812;12.872;2023-05-02T09:24:41;98343.94;;;10.79;91.21
5062;BME280;2351;50.812;12.872;2023-05-02T09:27:12;98351.97;;;10.77;91.61
5062;BME280;2351;50.812;12.872;2023-05-02T09:29:44;98351.03;;;10.78;91.66
5062;BME280;2351;50.812;12.872;2023-05-02T09:32:16;98355.47;;;10.78;91.32
5062;BME280;2351;50.812;12.872;2023-05-02T09:35:03;98355.59;;;10.76;91.02
5062;BME280;2351;50.812;12.872;2023-05-02T09:37:35;98355.97;;;10.72;91.04
5062;BME280;2351;50.812;12.872;2023-05-02T09:40:09;98364.50;;;10.75;91.48
5062;BME280;2351;50.812;12.872;2023-05-02T09:42:41;98359.69;;;10.80;91.46
5062;BME280;2351;50.812;12.872;2023-05-02T09:45:20;98368.09;;;10.85;91.53
5062;BME280;2351;50.812;12.872;2023-05-02T09:47:52;98359.78;;;10.90;91.62
5062;BME280;2351;50.812;12.872;2023-05-02T09:50:34;98364.97;;;10.92;91.39
5062;BME280;2351;50.812;12.872;2023-05-02T09:53:08;98368.06;;;10.97;91.51
5062;BME280;2351;50.812;12.872;2023-05-02T09:55:42;98367.47;;;10.93;90.88
5062;BME280;2351;50.812;12.872;2023-05-02T09:58:20;98366.59;;;11.04;91.69
5062;BME280;2351;50.812;12.872;2023-05-02T10:00:52;98375.38;;;11.16;91.34
5062;BME280;2351;50.812;12.872;2023-05-02T10:03:25;98372.66;;;11.27;90.23
5062;BME280;2351;50.812;12.872;2023-05-02T10:05:57;98371.59;;;11.30;90.08
5062;BME280;2351;50.812;12.872;2023-05-02T10:08:29;98378.31;;;11.34;89.71
5062;BME280;2351;50.812;12.872;2023-05-02T10:11:07;98382.00;;;11.43;88.82
5062;BME280;2351;50.812;12.872;2023-05-02T10:13:39;98374.88;;;11.43;87.71
5062;BME280;2351;50.812;12.872;2023-05-02T10:16:12;98378.56;;;11.31;86.20
5062;BME280;2351;50.812;12.872;2023-05-02T10:18:56;98383.88;;;11.52;87.88
5062;BME280;2351;50.812;12.872;2023-05-02T10:21:29;98380.28;;;11.74;88.12
5062;BME280;2351;50.812;12.872;2023-05-02T10:24:02;98381.38;;;11.93;88.07
5062;BME280;2351;50.812;12.872;2023-05-02T10:26:35;98382.59;;;12.00;84.95
5062;BME280;2351;50.812;12.872;2023-05-02T10:29:07;98381.00;;;11.77;84.41
5062;BME280;2351;50.812;12.872;2023-05-02T10:31:40;98389.50;;;11.92;85.43
5062;BME280;2351;50.812;12.872;2023-05-02T10:34:12;98395.47;;;11.94;84.85
5062;BME280;2351;50.812;12.872;2023-05-02T10:36:46;98399.63;;;11.86;84.05
5062;BME280;2351;50.812;12.872;2023-05-02T10:39:18;98388.16;;;11.86;84.13
5062;BME280;2351;50.812;12.872;2023-05-02T10:41:57;98389.75;;;11.88;84.82
5062;BME280;2351;50.812;12.872;2023-05-02T10:44:33;98389.56;;;12.01;85.39
5062;BME280;2351;50.812;12.872;2023-05-02T10:47:18;98383.19;;;11.93;84.06
5062;BME280;2351;50.812;12.872;2023-05-02T10:49:51;98385.16;;;12.12;85.29
5062;BME280;2351;50.812;12.872;2023-05-02T10:52:28;98382.81;;;12.18;82.42
5062;BME280;2351;50.812;12.872;2023-05-02T10:55:17;98385.72;;;12.46;82.91
5062;BME280;2351;50.812;12.872;2023-05-02T10:58:21;98387.44;;;12.26;80.08
5062;BME280;2351;50.812;12.872;2023-05-02T11:00:53;98385.03;;;12.44;81.94
5062;BME280;2351;50.812;12.872;2023-05-02T11:03:52;98378.06;;;12.53;79.81
5062;BME280;2351;50.812;12.872;2023-05-02T11:06:25;98377.53;;;12.59;79.20
5062;BME280;2351;50.812;12.872;2023-05-02T11:09:34;98369.38;;;12.92;80.66
5062;BME280;2351;50.812;12.872;2023-05-02T11:12:06;98365.78;;;13.22;78.59
5062;BME280;2351;50.812;12.872;2023-05-02T11:14:43;98356.03;;;13.43;78.39
5062;BME280;2351;50.812;12.872;2023-05-02T11:17:16;98367.75;;;13.69;79.29
5062;BME280;2351;50.812;12.872;2023-05-02T11:20:23;98362.00;;;13.94;77.44
5062;BME280;2351;50.812;12.872;2023-05-02T11:22:58;98364.06;;;14.10;75.29
5062;BME280;2351;50.812;12.872;2023-05-02T11:25:31;98354.22;;;14.10;74.27
5062;BME280;2351;50.812;12.872;2023-05-02T11:28:06;98358.75;;;14.00;68.06
5062;BME280;2351;50.812;12.872;2023-05-02T11:30:42;98361.06;;;13.75;68.76
5062;BME280;2351;50.812;12.872;2023-05-02T11:33:17;98360.63;;;13.70;70.30
5062;BME280;2351;50.812;12.872;2023-05-02T11:35:49;98365.25;;;13.48;69.42
5062;BME280;2351;50.812;12.872;2023-05-02T11:38:21;98364.28;;;13.49;70.62
5062;BME280;2351;50.812;12.872;2023-05-02T11:40:58;98362.31;;;13.61;71.21
5062;BME280;2351;50.812;12.872;2023-05-02T11:43:30;98362.75;;;13.66;70.41
5062;BME280;2351;50.812;12.872;2023-05-02T11:46:05;98366.09;;;13.59;71.01
5062;BME280;2351;50.812;12.872;2023-05-02T11:48:37;98358.53;;;13.64;71.18
5062;BME280;2351;50.812;12.872;2023-05-02T11:51:09;98364.53;;;13.76;71.74
5062;BME280;2351;50.812;12.872;2023-05-02T11:53:44;98372.66;;;13.84;70.80
5062;BME280;2351;50.812;12.872;2023-05-02T11:56:22;98368.25;;;14.12;72.67
5062;BME280;2351;50.812;12.872;2023-05-02T11:58:59;98366.16;;;14.44;72.96
5062;BME280;2351;50.812;12.872;2023-05-02T12:01:33;98364.94;;;14.94;72.64
5062;BME280;2351;50.812;12.872;2023-05-02T12:04:07;98362.84;;;14.98;65.62
5062;BME280;2351;50.812;12.872;2023-05-02T12:06:53;98368.00;;;14.99;67.84
5062;BME280;2351;50.812;12.872;2023-05-02T12:09:25;98373.59;;;15.24;68.65
5062;BME280;2351;50.812;12.872;2023-05-02T12:11:57;98371.69;;;15.34;64.88
5062;BME280;2351;50.812;12.872;2023-05-02T12:14:29;98370.53;;;15.19;64.96
5062;BME280;2351;50.812;12.872;2023-05-02T12:17:04;98374.31;;;14.42;66.82
5062;BME280;2351;50.812;12.872;2023-05-02T12:19:36;98380.28;;;14.16;68.38
5062;BME280;2351;50.812;12.872;2023-05-02T12:22:08;98371.09;;;13.81;69.75
5062;BME280;2351;50.812;12.872;2023-05-02T12:24:40;98375.75;;;13.50;70.66
5062;BME280;2351;50.812;12.872;2023-05-02T12:27:14;98384.53;;;13.31;72.08
5062;BME280;2351;50.812;12.872;2023-05-02T12:29:47;98378.09;;;13.14;73.44
5062;BME280;2351;50.812;12.872;2023-05-02T12:32:28;98382.25;;;13.06;73.37
5062;BME280;2351;50.812;12.872;2023-05-02T12:35:01;98379.88;;;13.13;72.95
5062;BME280;2351;50.812;12.872;2023-05-02T12:37:33;98384.53;;;13.11;73.48
5062;BME280;2351;50.812;12.872;2023-05-02T12:40:14;98380.91;;;13.22;74.96
5062;BME280;2351;50.812;12.872;2023-05-02T12:42:58;98382.31;;;13.75;74.04
5062;BME280;2351;50.812;12.872;2023-05-02T12:45:30;98373.81;;;14.19;72.14
5062;BME280;2351;50.812;12.872;2023-05-02T12:48:22;98375.47;;;14.30;67.11
5062;BME280;2351;50.812;12.872;2023-05-02T12:50:54;98364.03;;;14.48;67.95
5062;BME280;2351;50.812;12.872;2023-05-02T12:53:39;98361.72;;;14.72;62.40
5062;BME280;2351;50.812;12.872;2023-05-02T12:56:12;98365.88;;;14.85;65.90
5062;BME280;2351;50.812;12.872;2023-05-02T12:58:45;98357.22;;;15.55;67.69
5062;BME280;2351;50.812;12.872;2023-05-02T13:01:18;98356.91;;;16.03;63.93
5062;BME280;2351;50.812;12.872;2023-05-02T13:03:51;98362.25;;;16.03;59.79
5062;BME280;2351;50.812;12.872;2023-05-02T13:06:23;98354.78;;;16.06;61.74
5062;BME280;2351;50.812;12.872;2023-05-02T13:08:55;98365.03;;;15.75;58.10
5062;BME280;2351;50.812;12.872;2023-05-02T13:11:27;98370.94;;;15.42;58.40
5062;BME280;2351;50.812;12.872;2023-05-02T13:13:59;98364.81;;;14.96;60.19
5062;BME280;2351;50.812;12.872;2023-05-02T13:16:33;98362.97;;;14.96;61.55
5062;BME280;2351;50.812;12.872;2023-05-02T13:19:07;98369.75;;;14.90;62.47
5062;BME280;2351;50.812;12.872;2023-05-02T13:21:39;98367.63;;;14.94;62.87
5062;BME280;2351;50.812;12.872;2023-05-02T13:24:11;98366.03;;;15.38;63.77
5062;BME280;2351;50.812;12.872;2023-05-02T13:26:43;98363.28;;;15.84;62.44
5062;BME280;2351;50.812;12.872;2023-05-02T13:29:14;98368.16;;;15.70;59.87
5062;BME280;2351;50.812;12.872;2023-05-02T13:31:46;98376.09;;;15.26;61.77
5062;BME280;2351;50.812;12.872;2023-05-02T13:34:19;98372.38;;;15.18;62.25
5062;BME280;2351;50.812;12.872;2023-05-02T13:36:51;98369.00;;;15.34;62.11
5062;BME280;2351;50.812;12.872;2023-05-02T13:39:22;98373.16;;;15.11;63.01
5062;BME280;2351;50.812;12.872;2023-05-02T13:41:54;98370.09;;;14.78;63.79
5062;BME280;2351;50.812;12.872;2023-05-02T13:44:26;98371.59;;;14.52;65.01
5062;BME280;2351;50.812;12.872;2023-05-02T13:46:58;98375.28;;;14.41;64.96
5062;BME280;2351;50.812;12.872;2023-05-02T13:49:31;98368.59;;;14.37;66.32
5062;BME280;2351;50.812;12.872;2023-05-02T13:52:03;98368.25;;;14.12;66.59